Time;durP1;ratioP1;P1;durP2;ratioP2;P2;SDS_P1;SDS_P2;PMS_P1;PMS_P2;Temp;Humidity;BMP_temperature;BMP_pressure;BME280_temperature;BME280_humidity;BME280_pressure;Samples;Min_cycle;Max_cycle;Signal;HPM_P1;HPM_P2
2021/12/18 00:01:22;;;;;;;1.90;1.70;;;18.50;63.30;;;;;;5049673;28;20447;-83
2021/12/18 00:03:50;;;;;;;3.07;1.70;;;18.40;63.30;;;;;;5058236;28;20491;-83
2021/12/18 00:06:19;;;;;;;1.60;1.50;;;18.40;63.30;;;;;;5046020;28;20450;-83
2021/12/18 00:08:46;;;;;;;1.77;1.60;;;18.50;63.40;;;;;;5052113;28;20941;-83
2021/12/18 00:11:16;;;;;;;1.83;1.40;;;18.40;63.40;;;;;;5051080;28;20541;-83
2021/12/18 00:13:43;;;;;;;1.63;1.53;;;18.40;63.50;;;;;;5060763;28;20494;-83
2021/12/18 00:16:11;;;;;;;3.00;1.60;;;18.40;63.50;;;;;;5053323;28;20454;-83
2021/12/18 00:18:39;;;;;;;1.43;1.33;;;18.40;63.50;;;;;;5058694;28;20483;-83
2021/12/18 00:21:09;;;;;;;2.60;1.50;;;18.40;63.50;;;;;;5055820;28;20521;-83
2021/12/18 00:23:37;;;;;;;1.50;1.40;;;18.40;63.60;;;;;;5042487;28;20470;-84
2021/12/18 00:26:05;;;;;;;2.07;1.87;;;18.40;63.50;;;;;;5042424;28;20526;-84
2021/12/18 00:28:35;;;;;;;2.23;2.00;;;18.40;63.50;;;;;;5049092;28;20526;-84
2021/12/18 00:31:03;;;;;;;1.80;1.70;;;18.40;63.60;;;;;;5050049;28;20450;-84
2021/12/18 00:33:31;;;;;;;1.83;1.73;;;18.40;63.60;;;;;;5039750;28;21012;-83
2021/12/18 00:35:59;;;;;;;3.27;1.77;;;18.40;63.60;;;;;;5045647;28;20438;-82
2021/12/18 00:38:30;;;;;;;1.70;1.60;;;18.40;63.60;;;;;;5041080;28;20505;-82
2021/12/18 00:41:13;;;;;;;1.77;1.67;;;18.50;63.80;;;;;;5048718;28;20557;-82
2021/12/18 00:46:25;;;;;;;2.80;1.60;;;18.40;63.70;;;;;;5039950;28;20438;-82
2021/12/18 00:48:53;;;;;;;3.00;1.70;;;18.40;63.70;;;;;;5049022;28;20531;-81
2021/12/18 00:51:21;;;;;;;2.83;1.53;;;18.40;63.60;;;;;;5048666;28;20478;-81
2021/12/18 00:53:49;;;;;;;1.50;1.50;;;18.50;63.80;;;;;;5054205;28;20487;-81
2021/12/18 00:56:17;;;;;;;1.90;1.60;;;18.40;63.80;;;;;;5042912;28;20500;-82
2021/12/18 00:58:48;;;;;;;1.90;1.67;;;18.40;63.80;;;;;;5050875;28;20478;-82
2021/12/18 01:01:16;;;;;;;2.50;1.47;;;18.40;63.70;;;;;;5038433;28;20550;-83
2021/12/18 01:03:46;;;;;;;1.50;1.40;;;18.40;63.80;;;;;;5044429;28;20502;-83
2021/12/18 01:06:14;;;;;;;2.80;1.77;;;18.40;63.90;;;;;;5046555;28;20456;-82
2021/12/18 01:08:43;;;;;;;1.50;1.40;;;18.40;63.90;;;;;;5052507;28;20584;-83
2021/12/18 01:14:27;;;;;;;3.93;1.57;;;18.40;64.00;;;;;;5011658;28;20536;-82
2021/12/18 01:22:40;;;;;;;2.07;1.60;;;18.40;64.10;;;;;;5040612;28;20497;-85
2021/12/18 01:22:48;;;;;;;1.60;1.50;;;18.40;64.10;;;;;;5053387;28;20475;-83
2021/12/18 01:25:18;;;;;;;2.00;1.90;;;18.30;63.90;;;;;;5046030;28;20466;-83
2021/12/18 01:27:46;;;;;;;1.43;1.33;;;18.30;64.00;;;;;;5053157;28;20525;-82
2021/12/18 01:30:15;;;;;;;1.53;1.43;;;18.40;64.20;;;;;;5051607;28;20541;-83
2021/12/18 01:32:43;;;;;;;1.83;1.57;;;18.30;63.90;;;;;;5051272;28;20451;-83
2021/12/18 01:35:12;;;;;;;1.70;1.60;;;18.40;64.10;;;;;;5052259;28;20458;-82
2021/12/18 01:37:41;;;;;;;1.87;1.77;;;18.40;64.10;;;;;;5048748;28;20543;-82
2021/12/18 01:40:11;;;;;;;1.60;1.50;;;18.40;64.20;;;;;;5045201;28;20518;-84
2021/12/18 01:45:29;;;;;;;3.33;1.43;;;18.30;64.10;;;;;;5040328;28;20489;-83
2021/12/18 01:53:34;;;;;;;2.80;1.57;;;18.30;64.10;;;;;;5052291;28;20470;-84
2021/12/18 01:56:01;;;;;;;1.60;1.50;;;18.30;64.10;;;;;;5048095;28;20521;-83
2021/12/18 01:58:30;;;;;;;1.60;1.50;;;18.30;64.20;;;;;;5056211;28;20510;-84
2021/12/18 02:00:59;;;;;;;1.80;1.70;;;18.30;64.10;;;;;;5035378;28;20479;-82
2021/12/18 02:03:27;;;;;;;2.40;1.53;;;18.40;64.20;;;;;;5035505;28;20458;-85
2021/12/18 02:05:55;;;;;;;3.73;1.57;;;18.30;64.10;;;;;;5040605;28;20482;-83
2021/12/18 02:08:24;;;;;;;1.90;1.80;;;18.30;63.90;;;;;;5058035;28;20427;-82
2021/12/18 02:10:57;;;;;;;1.63;1.53;;;18.30;64.20;;;;;;5052473;28;20454;-83
2021/12/18 02:13:38;;;;;;;1.60;1.50;;;18.30;64.30;;;;;;5044623;28;20502;-84
2021/12/18 02:21:40;;;;;;;1.53;1.43;;;18.30;64.20;;;;;;5043530;28;20546;-83
2021/12/18 02:24:08;;;;;;;1.60;1.53;;;18.30;64.30;;;;;;5050014;28;21039;-83
2021/12/18 02:26:36;;;;;;;2.00;1.43;;;18.30;64.20;;;;;;5045793;28;20505;-83
2021/12/18 02:29:05;;;;;;;1.93;1.63;;;18.30;64.30;;;;;;5050096;28;20513;-83
2021/12/18 02:31:33;;;;;;;1.50;1.40;;;18.30;64.20;;;;;;5050844;28;20480;-83
2021/12/18 02:34:03;;;;;;;1.87;1.77;;;18.30;64.30;;;;;;5049396;28;20490;-84
2021/12/18 02:36:30;;;;;;;1.60;1.50;;;18.30;64.30;;;;;;5048854;28;20509;-83
2021/12/18 02:39:18;;;;;;;1.77;1.33;;;18.30;64.40;;;;;;5039647;28;20509;-83
2021/12/18 02:41:56;;;;;;;3.60;1.80;;;18.20;64.30;;;;;;5050352;28;20466;-83
2021/12/18 02:44:24;;;;;;;1.67;1.40;;;18.30;64.30;;;;;;5050074;28;20461;-83
2021/12/18 02:46:52;;;;;;;1.97;1.60;;;18.30;64.40;;;;;;5049054;28;20423;-83
2021/12/18 02:49:20;;;;;;;1.83;1.73;;;18.30;64.30;;;;;;5050702;28;20521;-83
2021/12/18 02:51:48;;;;;;;7.43;1.67;;;18.30;64.30;;;;;;5049774;28;20455;-84
2021/12/18 02:54:17;;;;;;;1.60;1.50;;;18.30;64.30;;;;;;5048841;28;20532;-83
2021/12/18 02:56:45;;;;;;;1.57;1.47;;;18.30;64.40;;;;;;5049579;28;20478;-83
2021/12/18 02:59:15;;;;;;;9.00;1.80;;;18.30;64.40;;;;;;5045809;28;20494;-83
2021/12/18 03:01:43;;;;;;;1.77;1.67;;;18.30;64.40;;;;;;5047532;28;20506;-83
2021/12/18 03:04:17;;;;;;;2.10;1.87;;;18.30;64.30;;;;;;5050581;28;20568;-83
2021/12/18 03:06:48;;;;;;;2.13;1.70;;;18.20;64.30;;;;;;5051209;28;20489;-83
2021/12/18 03:23:32;;;;;;;3.17;1.87;;;18.20;64.40;;;;;;5056450;28;20500;-82
2021/12/18 03:26:01;;;;;;;1.87;1.70;;;18.20;64.60;;;;;;5063977;28;20441;-83
2021/12/18 03:28:30;;;;;;;2.80;1.80;;;18.20;64.50;;;;;;5060246;28;20466;-83
2021/12/18 03:30:58;;;;;;;1.67;1.57;;;18.20;64.40;;;;;;5066177;28;20430;-83
2021/12/18 03:33:26;;;;;;;3.07;1.80;;;18.20;64.50;;;;;;5057140;28;20502;-83
2021/12/18 03:35:54;;;;;;;1.80;1.70;;;18.20;64.60;;;;;;5062540;28;20431;-82
2021/12/18 03:38:22;;;;;;;1.90;1.80;;;18.20;64.50;;;;;;5059872;28;20468;-82
2021/12/18 03:40:50;;;;;;;3.13;1.60;;;18.20;64.60;;;;;;5063921;28;20459;-83
2021/12/18 03:43:19;;;;;;;1.50;1.40;;;18.20;64.60;;;;;;5055907;28;20459;-83
2021/12/18 03:45:47;;;;;;;1.60;1.50;;;18.20;64.40;;;;;;5059916;28;20452;-83
2021/12/18 03:48:15;;;;;;;1.83;1.50;;;18.20;64.40;;;;;;5064588;28;20521;-83
2021/12/18 03:50:46;;;;;;;5.20;1.93;;;18.20;64.40;;;;;;5067674;28;20446;-83
2021/12/18 03:53:14;;;;;;;2.10;1.60;;;18.20;64.30;;;;;;5075411;28;20454;-83
2021/12/18 03:55:42;;;;;;;1.50;1.40;;;18.20;64.40;;;;;;5076747;28;20438;-83
2021/12/18 03:58:10;;;;;;;1.77;1.67;;;18.20;64.50;;;;;;5076042;28;20486;-83
2021/12/18 04:00:40;;;;;;;1.83;1.73;;;18.20;64.40;;;;;;5075882;28;20465;-83
2021/12/18 04:03:08;;;;;;;2.43;2.17;;;18.20;64.40;;;;;;5073009;28;20450;-83
2021/12/18 04:05:36;;;;;;;1.77;1.47;;;18.20;64.40;;;;;;5053345;28;20459;-83
2021/12/18 04:08:09;;;;;;;1.60;1.50;;;18.20;64.50;;;;;;5054454;28;20474;-83
2021/12/18 04:10:38;;;;;;;3.60;2.03;;;18.10;64.40;;;;;;5051662;28;20477;-83
2021/12/18 04:13:06;;;;;;;1.97;1.87;;;18.10;64.40;;;;;;5049505;28;20489;-83
2021/12/18 04:15:34;;;;;;;1.80;1.70;;;18.10;64.40;;;;;;5047012;28;20463;-83
2021/12/18 04:18:03;;;;;;;1.93;1.60;;;18.10;64.50;;;;;;5046573;28;20439;-84
2021/12/18 04:20:31;;;;;;;2.13;2.00;;;18.10;64.50;;;;;;5036914;28;20531;-83
2021/12/18 04:22:59;;;;;;;1.80;1.70;;;18.10;64.40;;;;;;5032370;28;20450;-83
2021/12/18 04:25:27;;;;;;;1.87;1.70;;;18.10;64.50;;;;;;5048530;28;20448;-83
2021/12/18 04:27:55;;;;;;;1.63;1.53;;;18.10;64.40;;;;;;5047641;28;20423;-83
2021/12/18 04:30:23;;;;;;;2.03;1.60;;;18.10;64.50;;;;;;5047904;28;20427;-83
2021/12/18 04:32:56;;;;;;;1.90;1.70;;;18.10;64.40;;;;;;5036593;28;20925;-82
2021/12/18 04:35:25;;;;;;;1.80;1.70;;;18.10;64.50;;;;;;5037071;28;20471;-83
2021/12/18 04:37:53;;;;;;;2.80;1.63;;;18.10;64.40;;;;;;5037227;28;20534;-83
2021/12/18 04:40:25;;;;;;;1.80;1.70;;;18.10;64.50;;;;;;5037179;28;20566;-83
2021/12/18 04:42:52;;;;;;;4.70;1.97;;;18.10;64.60;;;;;;5053451;28;20459;-83
2021/12/18 04:45:20;;;;;;;1.90;1.80;;;18.10;64.70;;;;;;5057250;28;20513;-83
2021/12/18 04:47:49;;;;;;;2.70;1.90;;;18.10;64.50;;;;;;5056755;28;20526;-82
2021/12/18 04:50:17;;;;;;;2.20;1.50;;;18.10;64.40;;;;;;5057160;28;20466;-82
2021/12/18 04:52:46;;;;;;;2.10;1.90;;;18.10;64.50;;;;;;5056498;28;20438;-83
2021/12/18 04:55:14;;;;;;;2.63;1.67;;;18.10;64.60;;;;;;5056526;28;20482;-83
2021/12/18 04:57:42;;;;;;;2.10;1.50;;;18.10;64.60;;;;;;5057468;28;20553;-83
2021/12/18 05:00:12;;;;;;;1.73;1.63;;;18.10;64.60;;;;;;5054087;28;20565;-83
2021/12/18 05:02:42;;;;;;;4.10;1.57;;;18.10;64.50;;;;;;5053852;28;20716;-83
2021/12/18 05:05:12;;;;;;;1.80;1.70;;;18.10;64.60;;;;;;5058120;28;20489;-83
2021/12/18 05:07:40;;;;;;;2.30;1.67;;;18.10;64.60;;;;;;5057944;28;20524;-83
2021/12/18 05:10:10;;;;;;;4.50;1.90;;;18.10;64.50;;;;;;5059084;28;20439;-83
2021/12/18 05:12:39;;;;;;;1.73;1.63;;;18.10;64.60;;;;;;5059873;28;20474;-83
2021/12/18 05:15:07;;;;;;;1.60;1.50;;;18.10;64.50;;;;;;5053806;28;20483;-83
2021/12/18 05:17:35;;;;;;;1.80;1.70;;;18.00;64.60;;;;;;5055479;28;20447;-83
2021/12/18 05:20:04;;;;;;;1.90;1.80;;;18.10;64.50;;;;;;5060209;28;20514;-83
2021/12/18 05:22:32;;;;;;;2.30;1.70;;;18.00;64.50;;;;;;5060218;28;20470;-83
2021/12/18 05:25:00;;;;;;;1.70;1.60;;;18.00;64.50;;;;;;5059859;28;20521;-83
2021/12/18 05:27:29;;;;;;;1.67;1.57;;;18.00;64.30;;;;;;5059676;28;20488;-83
2021/12/18 05:29:57;;;;;;;2.50;1.80;;;18.00;64.40;;;;;;5058973;28;20470;-83
2021/12/18 05:32:25;;;;;;;1.80;1.70;;;18.00;64.60;;;;;;5058869;28;20522;-84
2021/12/18 05:34:54;;;;;;;1.73;1.63;;;18.00;64.50;;;;;;5052108;28;20604;-83
2021/12/18 05:37:32;;;;;;;1.70;1.60;;;18.00;64.30;;;;;;5060005;28;20439;-83
2021/12/18 05:40:00;;;;;;;2.03;1.53;;;18.00;64.30;;;;;;5059748;28;20462;-83
2021/12/18 05:42:29;;;;;;;1.63;1.53;;;18.00;64.60;;;;;;5060503;28;20446;-83
2021/12/18 05:44:57;;;;;;;1.77;1.67;;;18.00;64.40;;;;;;5060329;28;20455;-83
2021/12/18 05:47:25;;;;;;;2.60;1.90;;;18.00;64.50;;;;;;5059685;28;20431;-84
2021/12/18 05:49:53;;;;;;;1.77;1.60;;;18.00;64.50;;;;;;5059647;28;20458;-83
2021/12/18 05:52:23;;;;;;;2.07;1.97;;;18.00;64.40;;;;;;5055956;28;20497;-83
2021/12/18 05:54:50;;;;;;;1.60;1.50;;;18.00;64.50;;;;;;5059146;28;20462;-83
2021/12/18 05:57:18;;;;;;;3.10;2.10;;;18.00;65.10;;;;;;5059736;28;20525;-83
2021/12/18 05:59:47;;;;;;;1.90;1.47;;;18.00;64.50;;;;;;5059927;28;20550;-83
2021/12/18 06:02:15;;;;;;;2.20;1.37;;;18.00;64.50;;;;;;5061608;28;20438;-82
2021/12/18 06:04:44;;;;;;;2.77;1.50;;;17.90;64.50;;;;;;5063766;28;20494;-83
2021/12/18 06:07:27;;;;;;;1.73;1.63;;;17.90;64.30;;;;;;5063849;28;20430;-83
2021/12/18 06:09:55;;;;;;;1.30;1.30;;;18.00;64.50;;;;;;5059268;28;20431;-83
2021/12/18 06:12:23;;;;;;;1.70;1.60;;;18.00;64.30;;;;;;5063944;28;20453;-83
2021/12/18 06:14:53;;;;;;;1.80;1.70;;;17.90;64.20;;;;;;5063109;28;20470;-83
2021/12/18 06:17:20;;;;;;;2.70;1.70;;;17.90;64.30;;;;;;5063835;28;20458;-83
2021/12/18 06:19:48;;;;;;;1.73;1.50;;;17.90;64.40;;;;;;5064257;28;20494;-83
2021/12/18 06:22:17;;;;;;;1.77;1.67;;;17.90;64.50;;;;;;5063604;28;20488;-83
2021/12/18 06:24:45;;;;;;;1.73;1.60;;;17.90;64.30;;;;;;5063894;28;20461;-83
2021/12/18 06:27:13;;;;;;;1.63;1.53;;;17.90;64.50;;;;;;5056839;28;20450;-83
2021/12/18 06:29:42;;;;;;;1.60;1.50;;;17.90;64.40;;;;;;5062614;28;20442;-83
2021/12/18 06:32:11;;;;;;;1.63;1.53;;;17.90;64.50;;;;;;5063381;28;20426;-83
2021/12/18 06:34:39;;;;;;;1.73;1.63;;;17.90;64.40;;;;;;5063714;28;20470;-83
2021/12/18 06:37:07;;;;;;;2.00;1.90;;;17.90;64.30;;;;;;5063054;28;20434;-83
2021/12/18 06:39:35;;;;;;;1.83;1.73;;;17.90;64.20;;;;;;5062464;28;20467;-83
2021/12/18 06:42:04;;;;;;;1.87;1.77;;;17.90;64.20;;;;;;5062163;28;20433;-83
2021/12/18 06:44:32;;;;;;;1.60;1.50;;;17.90;64.20;;;;;;5055979;28;20468;-83
2021/12/18 06:47:00;;;;;;;1.60;1.50;;;17.90;64.40;;;;;;5062218;28;20426;-83
2021/12/18 06:49:29;;;;;;;2.63;1.80;;;17.90;64.30;;;;;;5061242;28;20512;-83
2021/12/18 06:51:57;;;;;;;1.80;1.70;;;17.90;64.40;;;;;;5061714;28;20453;-83
2021/12/18 06:54:25;;;;;;;1.53;1.43;;;17.90;64.40;;;;;;5061466;28;20524;-83
2021/12/18 06:56:53;;;;;;;2.00;1.90;;;17.90;64.30;;;;;;5061190;28;20501;-83
2021/12/18 06:59:22;;;;;;;1.37;1.27;;;17.80;64.20;;;;;;5060523;28;21099;-83
2021/12/18 07:01:52;;;;;;;3.10;1.77;;;17.90;64.40;;;;;;5058175;28;21028;-83
2021/12/18 07:04:19;;;;;;;1.90;1.80;;;17.90;64.40;;;;;;5055834;28;20466;-83
2021/12/18 07:06:49;;;;;;;1.43;1.33;;;17.90;64.20;;;;;;5062860;28;20474;-83
2021/12/18 07:09:17;;;;;;;1.70;1.60;;;17.90;64.30;;;;;;5061992;28;20438;-83
2021/12/18 07:11:45;;;;;;;1.57;1.47;;;17.90;64.20;;;;;;5061920;28;20431;-83
2021/12/18 07:14:14;;;;;;;1.67;1.57;;;17.90;64.30;;;;;;5061752;28;20465;-83
2021/12/18 07:16:42;;;;;;;1.93;1.83;;;17.90;64.20;;;;;;5062147;28;20506;-83
2021/12/18 07:19:09;;;;;;;1.60;1.50;;;17.90;64.30;;;;;;5059863;28;20481;-83
2021/12/18 07:21:37;;;;;;;2.53;1.43;;;17.90;64.30;;;;;;5050616;28;20506;-83
2021/12/18 07:24:07;;;;;;;2.03;1.93;;;17.90;64.30;;;;;;5062773;28;20451;-83
2021/12/18 07:26:35;;;;;;;1.60;1.50;;;17.80;64.20;;;;;;5061728;28;20861;-83
2021/12/18 07:29:03;;;;;;;1.67;1.57;;;17.90;64.30;;;;;;5061648;28;20521;-83
2021/12/18 07:31:31;;;;;;;1.83;1.73;;;17.90;64.50;;;;;;5054045;28;20510;-83
2021/12/18 07:33:59;;;;;;;1.70;1.60;;;17.90;64.30;;;;;;5054939;28;20535;-83
2021/12/18 07:36:27;;;;;;;1.83;1.73;;;17.90;64.40;;;;;;5053663;28;20864;-83
2021/12/18 07:38:55;;;;;;;1.80;1.70;;;17.90;64.20;;;;;;5047659;28;20542;-83
2021/12/18 07:41:24;;;;;;;4.70;1.50;;;17.90;64.20;;;;;;5062198;28;20492;-83
2021/12/18 07:43:52;;;;;;;1.40;1.30;;;17.90;64.40;;;;;;5055224;28;20497;-83
2021/12/18 07:46:21;;;;;;;1.60;1.50;;;17.90;64.30;;;;;;5052263;28;20527;-83
2021/12/18 07:48:49;;;;;;;1.90;1.80;;;17.90;64.30;;;;;;5050327;28;20494;-83
2021/12/18 07:51:17;;;;;;;1.50;1.43;;;17.90;64.30;;;;;;5051204;28;20423;-83
2021/12/18 07:53:45;;;;;;;1.40;1.30;;;17.90;64.40;;;;;;5051449;28;20892;-83
2021/12/18 07:56:13;;;;;;;1.70;1.60;;;17.90;64.40;;;;;;5051704;28;20461;-83
2021/12/18 07:58:43;;;;;;;1.70;1.60;;;17.90;64.20;;;;;;5052965;28;20432;-83
2021/12/18 08:01:10;;;;;;;1.77;1.67;;;17.90;64.30;;;;;;5051016;28;20551;-83
2021/12/18 08:03:40;;;;;;;1.70;1.60;;;17.90;64.50;;;;;;5056724;28;20530;-83
2021/12/18 08:06:08;;;;;;;1.90;1.80;;;17.90;64.40;;;;;;5063818;28;20437;-83
2021/12/18 08:08:36;;;;;;;1.60;1.50;;;17.90;64.20;;;;;;5062598;28;20471;-83
2021/12/18 08:11:04;;;;;;;1.80;1.70;;;17.90;64.20;;;;;;5062432;28;20426;-83
2021/12/18 08:13:31;;;;;;;2.13;1.93;;;18.00;64.30;;;;;;5063567;28;20475;-83
2021/12/18 08:16:01;;;;;;;1.77;1.67;;;18.00;64.20;;;;;;5065373;28;20435;-83
2021/12/18 08:18:29;;;;;;;1.70;1.63;;;18.00;64.30;;;;;;5062755;28;20432;-83
2021/12/18 08:20:57;;;;;;;1.87;1.77;;;18.00;64.30;;;;;;5063884;28;20473;-83
2021/12/18 08:23:24;;;;;;;1.70;1.60;;;18.00;64.30;;;;;;5061351;28;20479;-83
2021/12/18 08:25:53;;;;;;;1.60;1.50;;;18.00;64.30;;;;;;5060416;28;20474;-83
2021/12/18 08:28:21;;;;;;;1.70;1.60;;;18.00;64.30;;;;;;5060135;28;20504;-83
2021/12/18 08:30:49;;;;;;;1.80;1.70;;;18.00;64.20;;;;;;5063723;28;20455;-84
2021/12/18 08:33:18;;;;;;;1.63;1.37;;;18.00;64.20;;;;;;5069435;28;20474;-83
2021/12/18 08:35:46;;;;;;;1.40;1.40;;;18.00;64.30;;;;;;5069697;28;20447;-83
2021/12/18 08:38:14;;;;;;;6.77;2.07;;;18.00;64.30;;;;;;5071977;28;20422;-83
2021/12/18 08:40:43;;;;;;;1.30;1.30;;;18.10;64.40;;;;;;5069676;28;20435;-84
2021/12/18 08:43:10;;;;;;;1.87;1.73;;;18.00;64.10;;;;;;5072085;28;20478;-83
2021/12/18 08:45:38;;;;;;;1.70;1.60;;;18.00;64.10;;;;;;5069291;28;20516;-83
2021/12/18 08:48:06;;;;;;;1.73;1.63;;;18.00;64.10;;;;;;5071936;28;20438;-83
2021/12/18 08:50:36;;;;;;;1.80;1.70;;;18.10;64.20;;;;;;5070506;28;20497;-83
2021/12/18 08:53:03;;;;;;;1.60;1.50;;;18.10;64.20;;;;;;5065195;28;20447;-83
2021/12/18 08:55:32;;;;;;;2.10;2.00;;;18.10;64.20;;;;;;5061957;28;20493;-83
2021/12/18 08:58:00;;;;;;;1.80;1.70;;;18.10;64.10;;;;;;5053408;28;20435;-83
2021/12/18 09:00:30;;;;;;;1.63;1.53;;;18.20;64.30;;;;;;5051148;28;20478;-82
2021/12/18 09:02:59;;;;;;;1.43;1.43;;;18.20;64.30;;;;;;5059582;28;20463;-83
2021/12/18 09:05:27;;;;;;;1.40;1.40;;;18.20;64.20;;;;;;5065984;28;20450;-83
2021/12/18 09:07:57;;;;;;;1.50;1.40;;;18.20;64.10;;;;;;5064710;28;20424;-83
2021/12/18 09:10:25;;;;;;;1.50;1.40;;;18.20;64.10;;;;;;5061752;28;20428;-82
2021/12/18 09:12:53;;;;;;;1.90;1.80;;;18.20;64.30;;;;;;5055689;28;20454;-84
2021/12/18 09:15:22;;;;;;;3.90;1.50;;;18.20;64.20;;;;;;5069657;28;20454;-84
2021/12/18 09:17:49;;;;;;;1.60;1.50;;;18.20;64.20;;;;;;5071156;28;20473;-84
2021/12/18 09:20:18;;;;;;;1.80;1.70;;;18.20;64.40;;;;;;5060846;28;20463;-84
2021/12/18 09:22:46;;;;;;;1.57;1.47;;;18.30;64.30;;;;;;5067003;28;20462;-83
2021/12/18 09:25:15;;;;;;;1.70;1.60;;;18.30;64.20;;;;;;5065931;28;20433;-82
2021/12/18 09:27:44;;;;;;;1.30;1.20;;;18.30;64.20;;;;;;5063268;28;20442;-82
2021/12/18 09:30:13;;;;;;;1.60;1.50;;;18.30;64.10;;;;;;5064622;28;20496;-84
2021/12/18 09:32:41;;;;;;;1.53;1.43;;;18.30;63.90;;;;;;5068663;28;20446;-83
2021/12/18 09:35:10;;;;;;;1.50;1.40;;;18.30;63.90;;;;;;5064846;28;20451;-82
2021/12/18 09:37:38;;;;;;;1.40;1.30;;;18.40;63.90;;;;;;5058112;28;20515;-83
2021/12/18 09:40:08;;;;;;;1.67;1.57;;;18.40;63.90;;;;;;5061654;28;20470;-82
2021/12/18 09:42:38;;;;;;;1.70;1.60;;;18.40;63.80;;;;;;5056183;28;20502;-80
2021/12/18 09:45:06;;;;;;;1.47;1.37;;;18.40;63.60;;;;;;5055509;28;20482;-81
2021/12/18 09:47:35;;;;;;;1.33;1.23;;;18.50;63.70;;;;;;5057291;28;20484;-82
2021/12/18 09:50:03;;;;;;;1.00;1.00;;;18.40;63.50;;;;;;5054694;28;20461;-82
2021/12/18 09:52:31;;;;;;;1.50;1.40;;;18.50;63.60;;;;;;5052223;28;20538;-81
2021/12/18 09:54:59;;;;;;;1.07;1.07;;;18.50;63.70;;;;;;5051888;28;20561;-81
2021/12/18 09:57:27;;;;;;;1.73;1.63;;;18.50;63.40;;;;;;5054888;28;20521;-81
2021/12/18 09:59:56;;;;;;;2.00;1.87;;;18.50;63.30;;;;;;5056759;28;20529;-81
2021/12/18 10:02:24;;;;;;;2.20;1.50;;;18.40;63.30;;;;;;5056469;28;21056;-81
2021/12/18 10:04:52;;;;;;;1.10;1.10;;;18.50;63.40;;;;;;5057121;28;20549;-81
2021/12/18 10:07:21;;;;;;;1.10;1.00;;;18.40;63.20;;;;;;5056560;28;20435;-81
2021/12/18 10:09:49;;;;;;;1.60;1.50;;;18.40;63.30;;;;;;5062166;28;20502;-81
2021/12/18 10:12:19;;;;;;;1.33;1.23;;;18.50;63.30;;;;;;5058410;28;20992;-81
2021/12/18 10:14:50;;;;;;;1.60;1.50;;;18.50;63.20;;;;;;5060830;28;20498;-81
2021/12/18 10:17:25;;;;;;;1.33;1.23;;;18.50;63.10;;;;;;5060082;28;20438;-81
2021/12/18 10:19:53;;;;;;;1.53;1.20;;;18.50;63.10;;;;;;5060112;28;20437;-80
2021/12/18 10:22:21;;;;;;;1.33;1.03;;;18.50;63.10;;;;;;5061319;28;20526;-80
2021/12/18 10:25:01;;;;;;;1.97;1.33;;;18.50;63.10;;;;;;5063485;28;20443;-80
2021/12/18 10:27:30;;;;;;;1.20;1.20;;;18.40;63.20;;;;;;5071687;28;20399;-80
2021/12/18 10:30:13;;;;;;;1.53;1.20;;;18.50;63.10;;;;;;5067115;28;20455;-80
2021/12/18 10:32:44;;;;;;;1.30;1.30;;;18.50;62.90;;;;;;5067706;28;20437;-80
2021/12/18 10:35:12;;;;;;;1.47;1.20;;;18.50;63.00;;;;;;5060616;28;20442;-80
2021/12/18 10:37:40;;;;;;;1.50;1.40;;;18.50;63.10;;;;;;5045164;28;20463;-81
2021/12/18 10:40:09;;;;;;;1.30;1.20;;;18.50;63.00;;;;;;5054779;28;20471;-80
2021/12/18 10:42:40;;;;;;;1.63;1.20;;;18.50;62.90;;;;;;5061316;28;20466;-80
2021/12/18 10:45:16;;;;;;;1.50;1.40;;;18.50;62.90;;;;;;5060728;28;20488;-80
2021/12/18 10:47:54;;;;;;;1.43;1.30;;;18.50;63.00;;;;;;5042724;28;20469;-80
2021/12/18 10:50:26;;;;;;;1.70;1.60;;;18.50;62.90;;;;;;5064177;28;20442;-80
2021/12/18 10:52:56;;;;;;;2.50;1.73;;;18.50;62.90;;;;;;5064189;28;20461;-80
2021/12/18 10:55:31;;;;;;;1.73;1.47;;;18.50;62.80;;;;;;5064529;28;20458;-80
2021/12/18 10:58:01;;;;;;;2.07;1.87;;;18.50;62.80;;;;;;5064173;28;20407;-80
2021/12/18 11:00:39;;;;;;;2.10;1.23;;;18.50;63.00;;;;;;5065003;28;20474;-80
2021/12/18 11:03:22;;;;;;;1.63;1.53;;;18.50;62.80;;;;;;5050971;28;20565;-81
2021/12/18 11:06:10;;;;;;;2.27;1.50;;;18.50;62.60;;;;;;5064742;28;20442;-81
2021/12/18 11:08:55;;;;;;;4.60;1.37;;;18.50;62.70;;;;;;5063781;28;20441;-81
2021/12/18 11:14:11;;;;;;;4.23;1.73;;;18.60;62.70;;;;;;5063509;28;20458;-81
2021/12/18 11:16:40;;;;;;;1.77;1.67;;;18.60;62.70;;;;;;5063100;28;20443;-81
2021/12/18 11:19:11;;;;;;;1.90;1.80;;;18.60;62.70;;;;;;5062604;28;20506;-81
2021/12/18 11:21:39;;;;;;;3.90;1.53;;;18.60;62.70;;;;;;5063460;28;20465;-81
2021/12/18 11:24:08;;;;;;;3.33;1.60;;;18.60;62.60;;;;;;5061720;28;20906;-81
2021/12/18 11:26:41;;;;;;;1.37;1.27;;;18.60;62.70;;;;;;5060028;28;20521;-81
2021/12/18 11:29:13;;;;;;;1.80;1.70;;;18.60;62.70;;;;;;5043302;28;20439;-80
2021/12/18 11:31:42;;;;;;;23.83;6.83;;;18.60;62.60;;;;;;5059625;28;20438;-80
2021/12/18 11:34:11;;;;;;;22.40;11.00;;;18.80;63.20;;;;;;5055111;28;20562;-82
2021/12/18 11:37:01;;;;;;;20.03;10.80;;;19.00;63.80;;;;;;5057351;28;20434;-82
2021/12/18 11:39:30;;;;;;;19.10;10.33;;;19.20;64.00;;;;;;5044969;28;20424;-81
2021/12/18 11:41:58;;;;;;;18.80;10.07;;;19.30;63.70;;;;;;5041493;28;20467;-81
2021/12/18 11:44:28;;;;;;;18.97;10.30;;;19.40;63.70;;;;;;5043034;28;20475;-81
2021/12/18 11:46:56;;;;;;;27.53;11.10;;;19.40;63.60;;;;;;5042706;28;20466;-81
2021/12/18 11:49:27;;;;;;;21.07;10.50;;;19.50;63.70;;;;;;5043486;28;20442;-80
2021/12/18 11:52:00;;;;;;;20.80;12.00;;;19.50;63.70;;;;;;5052843;28;20455;-80
2021/12/18 11:54:41;;;;;;;19.57;11.57;;;19.50;63.80;;;;;;5063590;28;20486;-80
2021/12/18 11:57:08;;;;;;;18.77;11.20;;;19.70;64.10;;;;;;5061748;28;20460;-81
2021/12/18 11:59:40;;;;;;;21.40;12.40;;;19.90;64.30;;;;;;5061393;28;20489;-81
2021/12/18 12:02:08;;;;;;;24.63;11.87;;;20.10;64.00;;;;;;5062647;28;20477;-81
2021/12/18 12:04:59;;;;;;;20.60;12.50;;;20.20;63.80;;;;;;5064016;28;20510;-81
2021/12/18 12:07:28;;;;;;;20.53;12.20;;;20.30;63.80;;;;;;5063002;28;20439;-81
2021/12/18 12:10:12;;;;;;;26.17;12.43;;;20.30;63.70;;;;;;5058416;28;20455;-81
2021/12/18 12:12:52;;;;;;;24.93;12.50;;;20.40;64.00;;;;;;5064338;28;20457;-80
2021/12/18 12:15:20;;;;;;;20.67;12.57;;;20.40;63.80;;;;;;5063567;28;20411;-80
2021/12/18 12:17:54;;;;;;;24.90;12.83;;;20.40;63.90;;;;;;5063975;28;20436;-80
2021/12/18 12:20:38;;;;;;;27.43;14.40;;;20.40;64.00;;;;;;5063224;28;20470;-80
2021/12/18 12:23:06;;;;;;;24.40;14.07;;;20.50;64.00;;;;;;5062175;28;20475;-81
2021/12/18 12:25:45;;;;;;;31.87;14.47;;;20.40;64.00;;;;;;5062919;28;20433;-81
2021/12/18 12:28:15;;;;;;;24.57;13.43;;;20.50;64.10;;;;;;5059389;28;20945;-81
2021/12/18 12:30:45;;;;;;;23.87;13.00;;;20.40;64.00;;;;;;5061079;28;20466;-81
2021/12/18 12:33:28;;;;;;;22.53;12.70;;;20.40;64.20;;;;;;5056687;28;20473;-80
2021/12/18 12:36:04;;;;;;;31.73;14.07;;;20.30;64.10;;;;;;5040550;28;20480;-81
2021/12/18 12:38:34;;;;;;;26.93;13.47;;;20.30;64.30;;;;;;5039627;28;20458;-82
2021/12/18 12:41:27;;;;;;;25.90;14.57;;;20.30;64.50;;;;;;5043664;28;20479;-82
2021/12/18 12:44:04;;;;;;;29.47;14.10;;;20.30;64.80;;;;;;5043497;28;21074;-82
2021/12/18 12:46:35;;;;;;;26.90;14.00;;;20.30;64.80;;;;;;5059110;28;20469;-83
2021/12/18 12:49:08;;;;;;;22.37;13.80;;;20.30;64.70;;;;;;5061359;28;20442;-83
2021/12/18 12:52:11;;;;;;;22.93;13.57;;;20.20;64.50;;;;;;5041991;28;20442;-84
2021/12/18 12:55:02;;;;;;;31.27;14.60;;;20.20;65.00;;;;;;5040985;28;20468;-81
2021/12/18 12:57:41;;;;;;;26.37;14.33;;;20.30;65.10;;;;;;5039460;28;20444;-81
2021/12/18 13:00:38;;;;;;;30.00;14.83;;;20.20;64.90;;;;;;5040269;28;20486;-81
2021/12/18 13:03:20;;;;;;;26.87;14.60;;;20.20;65.10;;;;;;5048517;28;20502;-81
2021/12/18 13:05:55;;;;;;;25.60;13.23;;;20.20;65.00;;;;;;5060159;28;20418;-81
2021/12/18 13:08:25;;;;;;;22.70;12.73;;;20.20;64.90;;;;;;5060096;28;20930;-81
2021/12/18 13:10:53;;;;;;;36.70;14.67;;;20.20;64.90;;;;;;5059035;28;20445;-81
2021/12/18 13:13:22;;;;;;;22.30;13.40;;;20.30;65.20;;;;;;5060205;28;20500;-80
2021/12/18 13:15:53;;;;;;;26.70;13.73;;;20.20;65.00;;;;;;5059952;28;20442;-80
2021/12/18 13:18:22;;;;;;;26.87;12.60;;;20.30;65.00;;;;;;5059876;28;20510;-80
2021/12/18 13:20:55;;;;;;;20.73;12.67;;;20.20;64.90;;;;;;5054257;28;20877;-80
2021/12/18 13:23:39;;;;;;;28.50;13.30;;;20.20;65.10;;;;;;5060281;28;20442;-80
2021/12/18 13:26:08;;;;;;;29.13;13.77;;;20.20;65.20;;;;;;5060427;28;20438;-80
2021/12/18 13:28:36;;;;;;;27.83;14.60;;;20.20;65.00;;;;;;5060254;28;20455;-81
2021/12/18 13:31:09;;;;;;;22.57;13.10;;;20.20;65.10;;;;;;5060223;28;20521;-81
2021/12/18 13:33:37;;;;;;;22.83;13.47;;;20.20;65.20;;;;;;5059730;28;20490;-81
2021/12/18 13:36:05;;;;;;;28.60;14.50;;;20.20;65.20;;;;;;5060096;28;20529;-80
2021/12/18 13:38:34;;;;;;;19.70;12.20;;;20.20;65.30;;;;;;5053397;28;20527;-80